createdAt,value
2022-09-28T00:00:21.583Z,13.98
2022-09-28T00:02:48.536Z,13.95
2022-09-28T00:05:15.507Z,13.87
2022-09-28T00:07:42.647Z,13.91
2022-09-28T00:10:10.229Z,13.91
2022-09-28T00:12:37.402Z,13.73
2022-09-28T00:15:06.711Z,13.56
2022-09-28T00:17:34.026Z,13.70
2022-09-28T00:20:01.363Z,13.47
2022-09-28T00:22:28.510Z,13.38
2022-09-28T00:24:55.529Z,13.21
2022-09-28T00:27:22.320Z,13.34
2022-09-28T00:29:49.033Z,13.63
2022-09-28T00:32:17.189Z,13.73
2022-09-28T00:34:48.922Z,13.70
2022-09-28T00:37:15.798Z,13.81
2022-09-28T00:39:43.517Z,13.65
2022-09-28T00:42:14.340Z,13.86
2022-09-28T00:44:48.133Z,13.86
2022-09-28T00:47:39.820Z,13.86
2022-09-28T00:50:11.746Z,13.76
2022-09-28T00:52:43.004Z,13.81
2022-09-28T00:55:14.087Z,14.00
2022-09-28T00:57:46.319Z,14.09
2022-09-28T01:00:14.064Z,14.11
2022-09-28T01:02:42.914Z,14.08
2022-09-28T01:05:11.252Z,14.04
2022-09-28T01:07:39.079Z,13.82
2022-09-28T01:10:06.439Z,13.77
2022-09-28T01:12:33.458Z,13.91
2022-09-28T01:15:01.940Z,13.92
2022-09-28T01:17:42.279Z,14.06
2022-09-28T01:20:43.253Z,13.86
2022-09-28T01:23:39.105Z,13.92
2022-09-28T01:26:40.165Z,13.79
2022-09-28T01:29:16.493Z,13.77
2022-09-28T01:31:48.890Z,13.79
2022-09-28T01:34:20.788Z,13.83
2022-09-28T01:36:50.873Z,13.86
2022-09-28T01:39:22.397Z,13.81
2022-09-28T01:41:53.285Z,13.61
2022-09-28T01:44:23.467Z,13.53
2022-09-28T01:46:52.435Z,13.52
2022-09-28T01:49:23.770Z,13.37
2022-09-28T01:51:55.854Z,13.09
2022-09-28T01:54:28.303Z,13.02
2022-09-28T01:57:02.316Z,12.92
2022-09-28T01:59:30.109Z,12.96
2022-09-28T02:02:00.717Z,13.07
2022-09-28T02:04:32.815Z,13.14
2022-09-28T02:07:05.385Z,13.32
2022-09-28T02:09:36.513Z,13.36
2022-09-28T02:12:10.797Z,13.44
2022-09-28T02:14:41.047Z,12.98
2022-09-28T02:17:09.773Z,12.64
2022-09-28T02:19:36.891Z,13.10
2022-09-28T02:22:14.941Z,13.05
2022-09-28T02:24:52.264Z,13.23
2022-09-28T02:27:30.013Z,13.09
2022-09-28T02:29:56.860Z,13.06
2022-09-28T02:32:26.154Z,12.98
2022-09-28T02:34:53.117Z,12.92
2022-09-28T02:37:19.964Z,12.85
2022-09-28T02:39:46.713Z,12.73
2022-09-28T02:42:21.689Z,12.70
2022-09-28T02:45:06.414Z,12.66
2022-09-28T02:47:46.507Z,12.57
2022-09-28T02:50:21.757Z,12.48
2022-09-28T02:53:19.100Z,12.45
2022-09-28T02:55:57.768Z,12.49
2022-09-28T02:58:38.132Z,12.46
2022-09-28T03:01:16.078Z,12.42
2022-09-28T03:03:48.687Z,12.32
2022-09-28T03:06:23.229Z,12.21
2022-09-28T03:08:55.995Z,12.18
2022-09-28T03:11:30.436Z,12.19
2022-09-28T03:13:59.592Z,12.12
2022-09-28T03:16:27.652Z,12.13
2022-09-28T03:18:54.540Z,12.11
2022-09-28T03:21:21.439Z,12.14
2022-09-28T03:23:48.161Z,12.05
2022-09-28T03:26:16.915Z,12.00
2022-09-28T03:28:43.843Z,11.92
2022-09-28T03:31:12.058Z,12.03
2022-09-28T03:33:38.929Z,12.04
2022-09-28T03:36:06.017Z,11.91
2022-09-28T03:38:32.893Z,11.77
2022-09-28T03:41:00.708Z,11.81
2022-09-28T03:43:28.265Z,11.73
2022-09-28T03:45:55.762Z,11.70
2022-09-28T03:48:30.018Z,11.63
2022-09-28T03:51:00.699Z,11.59
2022-09-28T03:53:29.594Z,11.68
2022-09-28T03:56:01.798Z,11.65
2022-09-28T03:58:28.741Z,11.62
2022-09-28T04:00:55.532Z,11.59
2022-09-28T04:03:22.343Z,11.47
2022-09-28T04:05:51.980Z,11.66
2022-09-28T04:08:19.323Z,11.64
2022-09-28T04:10:46.411Z,11.55
2022-09-28T04:13:13.640Z,11.51
2022-09-28T04:15:40.493Z,11.47
2022-09-28T04:18:10.913Z,11.49
2022-09-28T04:20:37.761Z,11.42
2022-09-28T04:23:05.935Z,11.33
2022-09-28T04:25:32.704Z,11.36
2022-09-28T04:28:17.980Z,11.41
2022-09-28T04:30:46.705Z,11.66
2022-09-28T04:33:13.489Z,11.71
2022-09-28T04:35:40.421Z,11.67
2022-09-28T04:38:08.535Z,11.74
2022-09-28T04:40:35.391Z,11.81
2022-09-28T04:43:02.134Z,12.10
2022-09-28T04:45:28.971Z,12.10
2022-09-28T04:47:55.833Z,12.00
2022-09-28T04:50:22.644Z,11.93
2022-09-28T04:52:49.421Z,11.85
2022-09-28T04:55:17.636Z,11.78
2022-09-28T04:57:44.409Z,11.72
2022-09-28T05:00:12.789Z,11.68
2022-09-28T05:02:39.698Z,11.62
2022-09-28T05:05:07.409Z,11.56
2022-09-28T05:07:34.152Z,11.56
2022-09-28T05:10:01.626Z,11.52
2022-09-28T05:12:29.726Z,11.45
2022-09-28T05:14:56.681Z,11.43
2022-09-28T05:17:23.677Z,11.36
2022-09-28T05:19:50.463Z,11.30
2022-09-28T05:22:17.292Z,11.33
2022-09-28T05:24:44.876Z,11.29
2022-09-28T05:27:11.757Z,11.22
2022-09-28T05:29:39.884Z,11.19
2022-09-28T05:32:06.953Z,11.14
2022-09-28T05:34:34.070Z,11.08
2022-09-28T05:37:00.982Z,10.98
2022-09-28T05:39:27.807Z,10.94
2022-09-28T05:41:55.780Z,10.94
2022-09-28T05:44:22.606Z,10.99
2022-09-28T05:46:52.661Z,10.97
2022-09-28T05:49:19.614Z,10.94
2022-09-28T05:51:46.388Z,10.83
2022-09-28T05:54:13.132Z,10.89
2022-09-28T05:56:39.870Z,10.96
2022-09-28T05:59:06.597Z,10.97
2022-09-28T06:01:33.547Z,11.21
2022-09-28T06:04:01.873Z,11.35
2022-09-28T06:06:28.665Z,11.55
2022-09-28T06:08:55.588Z,11.74
2022-09-28T06:11:23.824Z,11.82
2022-09-28T06:13:53.417Z,11.97
2022-09-28T06:16:20.726Z,12.03
2022-09-28T06:18:48.026Z,12.15
2022-09-28T06:21:16.131Z,12.13
2022-09-28T06:23:48.189Z,12.31
2022-09-28T06:26:16.587Z,12.28
2022-09-28T06:28:43.362Z,12.40
2022-09-28T06:31:10.433Z,12.57
2022-09-28T06:33:38.709Z,12.82
2022-09-28T06:36:05.811Z,13.14
2022-09-28T06:38:34.153Z,13.42
2022-09-28T06:41:01.101Z,13.62
2022-09-28T06:43:34.141Z,14.46
2022-09-28T06:46:02.278Z,14.67
2022-09-28T06:48:29.103Z,14.69
2022-09-28T06:50:55.879Z,14.16
2022-09-28T06:53:23.685Z,13.84
2022-09-28T06:55:51.917Z,14.86
2022-09-28T06:58:20.687Z,14.02
2022-09-28T07:00:48.870Z,13.97
2022-09-28T07:03:17.332Z,13.98
2022-09-28T07:05:45.752Z,13.80
2022-09-28T07:08:14.422Z,13.81
2022-09-28T07:10:42.827Z,13.97
2022-09-28T07:13:33.725Z,13.99
2022-09-28T07:16:00.469Z,14.04
2022-09-28T07:18:29.972Z,14.06
2022-09-28T07:20:57.485Z,14.04
2022-09-28T07:23:27.512Z,14.04
2022-09-28T07:25:54.685Z,13.94
2022-09-28T07:28:23.028Z,13.85
2022-09-28T07:30:49.951Z,13.91
2022-09-28T07:33:17.591Z,14.16
2022-09-28T07:35:50.777Z,14.20
2022-09-28T07:38:17.665Z,14.40
2022-09-28T07:41:03.217Z,14.48
2022-09-28T07:43:31.478Z,14.66
2022-09-28T07:45:58.523Z,14.40
2022-09-28T07:48:25.340Z,14.25
2022-09-28T07:50:54.231Z,14.12
2022-09-28T07:53:22.943Z,14.06
2022-09-28T07:55:54.107Z,14.21
2022-09-28T07:58:21.537Z,14.98
2022-09-28T08:00:50.574Z,15.45
2022-09-28T08:03:18.657Z,15.97
2022-09-28T08:05:46.872Z,16.18
2022-09-28T08:08:14.020Z,16.48
2022-09-28T08:10:46.292Z,16.50
2022-09-28T08:13:15.326Z,16.54
2022-09-28T08:15:42.712Z,16.70
2022-09-28T08:18:11.154Z,16.79
2022-09-28T08:20:56.852Z,17.00
2022-09-28T08:23:23.975Z,16.84
2022-09-28T08:25:55.376Z,16.79
2022-09-28T08:28:23.809Z,17.00
2022-09-28T08:30:51.434Z,17.04
2022-09-28T08:33:23.310Z,17.06
2022-09-28T08:35:57.568Z,17.10
2022-09-28T08:38:24.735Z,17.14
2022-09-28T08:41:06.175Z,17.23
2022-09-28T08:43:51.043Z,17.28
2022-09-28T08:46:23.895Z,17.23
2022-09-28T08:49:23.803Z,17.48
2022-09-28T08:51:51.318Z,17.51
2022-09-28T08:54:28.912Z,17.33
2022-09-28T08:56:59.508Z,17.49
2022-09-28T08:59:31.591Z,17.69
2022-09-28T09:02:01.276Z,17.68
2022-09-28T09:04:30.379Z,17.61
2022-09-28T09:07:21.352Z,17.79
2022-09-28T09:09:56.519Z,17.74
2022-09-28T09:12:36.793Z,17.60
2022-09-28T09:15:21.088Z,17.46
2022-09-28T09:18:07.735Z,17.86
2022-09-28T09:20:41.430Z,17.88
2022-09-28T09:23:15.540Z,17.57
2022-09-28T09:25:49.687Z,17.46
2022-09-28T09:28:45.149Z,17.87
2022-09-28T09:31:26.653Z,18.24
2022-09-28T09:34:11.631Z,17.99
2022-09-28T09:36:54.755Z,17.51
2022-09-28T09:39:37.360Z,17.48
2022-09-28T09:42:15.357Z,17.21
2022-09-28T09:45:03.063Z,17.16
2022-09-28T09:47:33.741Z,17.28
2022-09-28T09:50:08.385Z,17.16
2022-09-28T09:52:46.688Z,17.75
2022-09-28T09:55:18.981Z,17.62
2022-09-28T09:57:53.153Z,17.86
2022-09-28T10:00:20.283Z,18.08
2022-09-28T10:02:48.914Z,17.82
2022-09-28T10:05:21.275Z,18.77
2022-09-28T10:07:53.971Z,18.63
2022-09-28T10:10:26.222Z,17.82
2022-09-28T10:12:54.017Z,17.58
2022-09-28T10:15:24.674Z,17.79
2022-09-28T10:17:52.416Z,17.84
2022-09-28T10:20:20.097Z,17.88
2022-09-28T10:22:47.174Z,17.73
2022-09-28T10:25:15.755Z,17.41
2022-09-28T10:27:49.233Z,17.77
2022-09-28T10:30:19.066Z,17.85
2022-09-28T10:32:47.305Z,18.23
2022-09-28T10:35:22.595Z,17.44
2022-09-28T10:37:54.206Z,17.14
2022-09-28T10:40:31.723Z,16.98
2022-09-28T10:43:03.289Z,17.33
2022-09-28T10:45:35.395Z,17.57
2022-09-28T10:48:06.038Z,17.84
2022-09-28T10:50:34.405Z,18.13
2022-09-28T10:53:17.318Z,18.08
2022-09-28T10:55:57.462Z,17.98
2022-09-28T10:58:32.040Z,17.73
2022-09-28T11:01:02.862Z,17.91
2022-09-28T11:03:30.892Z,17.78
2022-09-28T11:06:00.799Z,17.73
2022-09-28T11:08:31.895Z,18.01
2022-09-28T11:11:05.963Z,18.80
2022-09-28T11:13:48.064Z,19.51
2022-09-28T11:16:24.834Z,19.19
2022-09-28T11:18:51.739Z,19.75
2022-09-28T11:21:22.788Z,19.84
2022-09-28T11:23:58.323Z,19.88
2022-09-28T11:26:26.950Z,19.21
2022-09-28T11:28:54.155Z,19.22
2022-09-28T11:31:27.350Z,19.33
2022-09-28T11:34:04.959Z,19.50
2022-09-28T11:36:45.956Z,18.99
2022-09-28T11:39:22.761Z,18.79
2022-09-28T11:42:01.420Z,18.79
2022-09-28T11:44:38.105Z,18.33
2022-09-28T11:47:26.908Z,18.61
2022-09-28T11:50:00.568Z,18.52
2022-09-28T11:52:34.421Z,18.73
2022-09-28T11:55:03.482Z,18.49
2022-09-28T11:57:37.867Z,19.16
2022-09-28T12:00:10.761Z,19.51
2022-09-28T12:02:43.004Z,19.85
2022-09-28T12:05:20.751Z,19.89
2022-09-28T12:07:53.186Z,19.28
2022-09-28T12:10:27.193Z,19.16
2022-09-28T12:13:01.350Z,18.19
2022-09-28T12:15:47.227Z,18.36
2022-09-28T12:18:28.702Z,18.18
2022-09-28T12:21:05.189Z,18.65
2022-09-28T12:23:35.893Z,18.70
2022-09-28T12:26:05.463Z,18.42
2022-09-28T12:28:39.195Z,18.86
2022-09-28T12:31:15.940Z,18.88
2022-09-28T12:33:48.114Z,18.90
2022-09-28T12:36:30.273Z,18.77
2022-09-28T12:39:24.047Z,18.97
2022-09-28T12:42:11.999Z,19.64
2022-09-28T12:44:59.737Z,19.06
2022-09-28T12:48:14.383Z,18.61
2022-09-28T12:50:57.236Z,18.57
2022-09-28T12:53:39.262Z,18.67
2022-09-28T12:56:12.016Z,18.83
2022-09-28T12:59:00.043Z,19.02
2022-09-28T13:02:01.532Z,19.03
2022-09-28T13:04:53.016Z,19.13
2022-09-28T13:07:29.707Z,18.92
2022-09-28T13:10:13.997Z,18.81
2022-09-28T13:12:52.998Z,18.64
2022-09-28T13:15:34.328Z,19.27
2022-09-28T13:18:10.995Z,18.95
2022-09-28T13:21:08.024Z,19.87
2022-09-28T13:23:38.566Z,20.69
2022-09-28T13:26:14.506Z,20.10
2022-09-28T13:28:43.167Z,19.79
2022-09-28T13:31:11.473Z,20.12
2022-09-28T13:33:43.968Z,20.54
2022-09-28T13:36:37.125Z,20.34
2022-09-28T13:39:04.424Z,21.05
2022-09-28T13:41:33.374Z,20.54
2022-09-28T13:44:24.399Z,19.73
2022-09-28T13:47:08.607Z,19.16
2022-09-28T13:52:12.491Z,20.51
2022-09-28T13:55:00.148Z,20.10
2022-09-28T13:57:37.278Z,20.22
2022-09-28T14:00:16.904Z,20.23
2022-09-28T14:02:47.849Z,19.82
2022-09-28T14:05:46.569Z,19.37
2022-09-28T14:08:30.116Z,19.85
2022-09-28T14:10:58.004Z,20.26
2022-09-28T14:13:59.996Z,20.57
2022-09-28T14:16:28.626Z,20.12
2022-09-28T14:18:57.910Z,20.40
2022-09-28T14:22:10.426Z,20.35
2022-09-28T14:24:58.510Z,20.55
2022-09-28T14:27:48.936Z,20.41
2022-09-28T14:30:22.475Z,19.85
2022-09-28T14:32:54.787Z,19.74
2022-09-28T14:35:31.252Z,19.41
2022-09-28T14:38:22.454Z,19.31
2022-09-28T14:41:09.427Z,19.43
2022-09-28T14:43:57.330Z,19.61
2022-09-28T14:46:32.768Z,19.16
2022-09-28T14:49:04.287Z,19.35
2022-09-28T14:52:05.207Z,19.51
2022-09-28T14:54:45.281Z,19.28
2022-09-28T14:57:19.489Z,19.45
2022-09-28T14:59:47.837Z,19.68
2022-09-28T15:02:24.740Z,19.43
2022-09-28T15:04:54.964Z,19.60
2022-09-28T15:07:27.123Z,19.46
2022-09-28T15:09:55.569Z,19.59
2022-09-28T15:12:26.609Z,19.66
2022-09-28T15:14:58.473Z,19.05
2022-09-28T15:17:28.526Z,19.40
2022-09-28T15:20:25.550Z,19.16
2022-09-28T15:22:57.284Z,18.68
2022-09-28T15:25:26.845Z,18.21
2022-09-28T15:27:57.057Z,18.06
2022-09-28T15:30:27.535Z,17.68
2022-09-28T15:32:56.851Z,17.65
2022-09-28T15:35:26.358Z,17.83
2022-09-28T15:37:55.036Z,17.59
2022-09-28T15:40:31.770Z,17.45
2022-09-28T15:43:00.299Z,17.73
2022-09-28T15:45:30.823Z,17.78
2022-09-28T15:48:19.113Z,17.42
2022-09-28T15:50:59.215Z,17.42
2022-09-28T15:53:26.957Z,17.39
2022-09-28T15:56:03.584Z,17.37
2022-09-28T15:58:31.695Z,17.36
2022-09-28T16:01:27.740Z,17.65
2022-09-28T16:03:55.159Z,17.58
2022-09-28T16:06:23.103Z,17.51
2022-09-28T16:08:49.922Z,17.37
2022-09-28T16:11:21.252Z,17.44
2022-09-28T16:13:58.011Z,16.93
2022-09-28T16:16:29.423Z,17.00
2022-09-28T16:18:58.745Z,17.07
2022-09-28T16:21:34.812Z,17.16
2022-09-28T16:24:01.738Z,17.16
2022-09-28T16:26:32.548Z,16.94
2022-09-28T16:29:05.899Z,17.01
2022-09-28T16:31:34.574Z,16.71
2022-09-28T16:34:11.711Z,16.83
2022-09-28T16:36:43.630Z,16.68
2022-09-28T16:39:11.928Z,16.83
2022-09-28T16:41:40.699Z,16.80
2022-09-28T16:44:24.448Z,16.94
2022-09-28T16:46:55.073Z,16.77
2022-09-28T16:49:23.840Z,16.94
2022-09-28T16:51:53.920Z,16.90
2022-09-28T16:54:41.001Z,16.73
2022-09-28T16:57:10.935Z,16.79
2022-09-28T16:59:39.100Z,16.95
2022-09-28T17:02:42.112Z,16.93
2022-09-28T17:05:06.962Z,16.55
2022-09-28T17:07:34.280Z,16.62
2022-09-28T17:10:01.106Z,16.57
2022-09-28T17:12:28.985Z,16.51
2022-09-28T17:14:57.644Z,16.49
2022-09-28T17:17:25.313Z,16.32
2022-09-28T17:19:52.106Z,16.23
2022-09-28T17:22:18.905Z,16.13
2022-09-28T17:24:46.188Z,16.03
2022-09-28T17:27:18.760Z,15.90
2022-09-28T17:29:45.587Z,15.86
2022-09-28T17:32:18.638Z,15.79
2022-09-28T17:34:55.958Z,15.71
2022-09-28T17:37:28.578Z,15.60
2022-09-28T17:39:55.389Z,14.95
2022-09-28T17:42:22.221Z,14.51
2022-09-28T17:44:49.082Z,14.50
2022-09-28T17:47:17.579Z,14.56
2022-09-28T17:49:46.092Z,14.58
2022-09-28T17:52:13.163Z,14.63
2022-09-28T17:54:39.972Z,14.69
2022-09-28T17:57:06.711Z,14.72
2022-09-28T17:59:33.514Z,14.69
2022-09-28T18:02:02.372Z,14.57
2022-09-28T18:04:50.864Z,14.58
2022-09-28T18:07:17.858Z,14.60
2022-09-28T18:09:44.658Z,14.51
2022-09-28T18:12:11.562Z,14.49
2022-09-28T18:14:39.915Z,14.42
2022-09-28T18:17:06.771Z,14.31
2022-09-28T18:19:34.913Z,14.36
2022-09-28T18:22:01.914Z,14.22
2022-09-28T18:24:28.863Z,14.16
2022-09-28T18:26:55.685Z,14.10
2022-09-28T18:29:22.461Z,14.07
2022-09-28T18:31:49.457Z,14.04
2022-09-28T18:34:16.448Z,14.15
2022-09-28T18:36:44.800Z,14.21
2022-09-28T18:39:11.706Z,14.31
2022-09-28T18:41:38.650Z,14.47
2022-09-28T18:44:05.511Z,14.49
2022-09-28T18:46:36.380Z,14.58
2022-09-28T18:49:03.866Z,14.54
2022-09-28T18:51:30.810Z,14.63
2022-09-28T18:54:00.556Z,14.65
2022-09-28T18:56:27.377Z,14.73
2022-09-28T18:58:54.326Z,14.66
2022-09-28T19:01:30.817Z,14.61
2022-09-28T19:03:59.179Z,14.62
2022-09-28T19:06:26.184Z,14.59
2022-09-28T19:08:55.705Z,14.52
2022-09-28T19:11:25.150Z,14.44
2022-09-28T19:13:53.541Z,14.39
2022-09-28T19:16:22.155Z,14.32
2022-09-28T19:18:50.112Z,14.17
2022-09-28T19:21:17.148Z,14.04
2022-09-28T19:23:48.896Z,13.96
2022-09-28T19:26:20.772Z,13.99
2022-09-28T19:28:49.346Z,13.99
2022-09-28T19:31:16.397Z,13.83
2022-09-28T19:33:46.435Z,13.82
2022-09-28T19:36:15.767Z,13.89
2022-09-28T19:38:42.657Z,13.85
2022-09-28T19:41:10.534Z,13.75
2022-09-28T19:43:38.313Z,13.73
2022-09-28T19:46:07.071Z,13.58
2022-09-28T19:48:34.628Z,13.64
2022-09-28T19:51:03.662Z,13.48
2022-09-28T19:53:32.429Z,13.56
2022-09-28T19:56:03.149Z,13.51
2022-09-28T19:58:32.407Z,13.57
2022-09-28T20:00:59.536Z,13.59
2022-09-28T20:03:28.336Z,13.62
2022-09-28T20:05:58.929Z,13.70
2022-09-28T20:08:26.280Z,13.79
2022-09-28T20:10:54.692Z,13.66
2022-09-28T20:13:22.069Z,13.83
2022-09-28T20:15:48.909Z,13.90
2022-09-28T20:18:16.016Z,14.00
2022-09-28T20:20:44.270Z,14.04
2022-09-28T20:23:11.804Z,13.98
2022-09-28T20:25:38.604Z,13.97
2022-09-28T20:28:05.567Z,13.98
2022-09-28T20:30:33.128Z,14.11
2022-09-28T20:33:00.155Z,13.96
2022-09-28T20:35:33.082Z,14.11
2022-09-28T20:38:08.076Z,14.18
2022-09-28T20:40:38.217Z,14.15
2022-09-28T20:43:06.591Z,14.06
2022-09-28T20:45:35.428Z,14.05
2022-09-28T20:48:06.451Z,14.01
2022-09-28T20:50:34.130Z,14.11
2022-09-28T20:53:02.368Z,14.10
2022-09-28T20:55:29.167Z,14.08
2022-09-28T20:57:55.907Z,14.17
2022-09-28T21:00:22.724Z,14.22
2022-09-28T21:02:53.110Z,14.25
2022-09-28T21:05:19.989Z,14.25
2022-09-28T21:07:46.841Z,14.18
2022-09-28T21:10:15.195Z,14.19
2022-09-28T21:12:42.026Z,14.21
2022-09-28T21:15:09.653Z,14.22
2022-09-28T21:17:36.458Z,14.17
2022-09-28T21:20:04.312Z,14.28
2022-09-28T21:22:31.080Z,14.28
2022-09-28T21:24:57.838Z,14.36
2022-09-28T21:27:26.035Z,14.36
2022-09-28T21:29:52.754Z,14.43
2022-09-28T21:32:19.594Z,14.42
2022-09-28T21:34:46.351Z,14.44
2022-09-28T21:37:13.113Z,14.49
2022-09-28T21:39:39.854Z,14.45
2022-09-28T21:42:06.780Z,14.37
2022-09-28T21:44:34.934Z,14.31
2022-09-28T21:47:01.736Z,14.39
2022-09-28T21:49:28.549Z,14.45
2022-09-28T21:51:55.469Z,14.36
2022-09-28T21:54:22.296Z,14.45
2022-09-28T21:56:49.003Z,14.42
2022-09-28T21:59:15.767Z,14.60
2022-09-28T22:01:44.301Z,14.58
2022-09-28T22:04:11.182Z,14.58
2022-09-28T22:06:37.966Z,14.52
2022-09-28T22:09:05.444Z,14.39
2022-09-28T22:11:32.247Z,14.48
2022-09-28T22:14:00.230Z,14.53
2022-09-28T22:16:29.547Z,14.61
2022-09-28T22:18:58.205Z,14.58
2022-09-28T22:21:27.156Z,14.52
2022-09-28T22:23:54.044Z,14.58
2022-09-28T22:26:23.482Z,14.54
2022-09-28T22:28:52.002Z,14.52
2022-09-28T22:31:22.126Z,14.47
2022-09-28T22:33:49.212Z,14.55
2022-09-28T22:36:17.436Z,14.58
2022-09-28T22:38:44.878Z,14.57
2022-09-28T22:41:12.580Z,14.55
2022-09-28T22:43:39.295Z,14.50
2022-09-28T22:46:08.575Z,14.45
2022-09-28T22:48:35.816Z,14.52
2022-09-28T22:51:04.054Z,14.51
2022-09-28T22:53:32.913Z,14.44
2022-09-28T22:56:01.625Z,14.30
2022-09-28T22:58:28.337Z,14.30
2022-09-28T23:00:57.878Z,14.24
2022-09-28T23:03:24.736Z,14.19
2022-09-28T23:05:54.882Z,14.07
2022-09-28T23:08:22.929Z,14.09
2022-09-28T23:10:51.719Z,14.08
2022-09-28T23:13:18.545Z,14.04
2022-09-28T23:15:55.034Z,14.08
2022-09-28T23:18:21.898Z,14.05
2022-09-28T23:20:53.155Z,14.11
2022-09-28T23:23:19.910Z,14.13
2022-09-28T23:25:46.712Z,14.06
2022-09-28T23:28:15.167Z,14.11
2022-09-28T23:30:41.943Z,14.09
2022-09-28T23:33:11.877Z,14.09
2022-09-28T23:35:38.703Z,14.07
2022-09-28T23:38:05.498Z,14.14
2022-09-28T23:40:32.342Z,14.08
2022-09-28T23:42:59.110Z,14.00
2022-09-28T23:45:27.389Z,14.01
2022-09-28T23:47:54.644Z,13.99
2022-09-28T23:50:21.437Z,13.98
2022-09-28T23:52:51.825Z,13.96
2022-09-28T23:55:19.157Z,13.97
2022-09-28T23:57:46.313Z,13.95
